createdAt,value
2018-09-20T00:00:53.943Z,10.87
2018-09-20T00:03:22.274Z,12.10
2018-09-20T00:05:50.542Z,11.00
2018-09-20T00:08:18.900Z,11.07
2018-09-20T00:10:47.270Z,11.10
2018-09-20T00:13:15.568Z,10.33
2018-09-20T00:15:43.900Z,10.30
2018-09-20T00:18:12.169Z,10.70
2018-09-20T00:20:40.468Z,11.30
2018-09-20T00:23:08.899Z,10.30
2018-09-20T00:25:37.391Z,9.90
2018-09-20T00:28:05.696Z,10.00
2018-09-20T00:30:33.999Z,10.90
2018-09-20T00:33:02.357Z,10.67
2018-09-20T00:35:30.608Z,11.50
2018-09-20T00:37:58.927Z,11.40
2018-09-20T00:40:27.304Z,11.00
2018-09-20T00:42:55.678Z,11.00
2018-09-20T00:45:23.949Z,11.47
2018-09-20T00:47:52.247Z,11.30
2018-09-20T00:50:20.829Z,11.20
2018-09-20T00:52:49.206Z,10.57
2018-09-20T00:55:17.557Z,10.60
2018-09-20T00:57:45.844Z,11.07
2018-09-20T01:00:14.197Z,10.33
2018-09-20T01:02:42.644Z,11.23
2018-09-20T01:05:11.028Z,10.67
2018-09-20T01:07:39.307Z,10.40
2018-09-20T01:10:07.632Z,10.07
2018-09-20T01:12:35.930Z,10.43
2018-09-20T01:15:04.943Z,9.77
2018-09-20T01:17:33.431Z,10.27
2018-09-20T01:20:01.726Z,10.87
2018-09-20T01:22:31.416Z,8.67
2018-09-20T01:24:59.711Z,11.30
2018-09-20T01:27:28.610Z,11.23
2018-09-20T01:29:56.922Z,9.80
2018-09-20T01:32:25.457Z,9.20
2018-09-20T01:34:53.777Z,9.77
2018-09-20T01:37:22.045Z,11.50
2018-09-20T01:39:50.556Z,11.00
2018-09-20T01:42:18.871Z,11.90
2018-09-20T01:44:47.233Z,10.80
2018-09-20T01:47:15.511Z,11.70
2018-09-20T01:49:43.909Z,10.90
2018-09-20T01:52:12.231Z,10.37
2018-09-20T01:54:40.524Z,11.33
2018-09-20T01:57:08.985Z,11.87
2018-09-20T01:59:37.216Z,11.60
2018-09-20T02:02:05.673Z,12.07
2018-09-20T02:04:33.953Z,12.60
2018-09-20T02:07:02.298Z,10.80
2018-09-20T02:09:30.600Z,10.03
2018-09-20T02:11:59.013Z,11.77
2018-09-20T02:14:27.321Z,9.10
2018-09-20T02:16:55.827Z,11.30
2018-09-20T02:19:24.142Z,12.50
2018-09-20T02:21:52.460Z,11.70
2018-09-20T02:24:20.872Z,12.57
2018-09-20T02:26:49.153Z,12.00
2018-09-20T02:29:17.615Z,11.07
2018-09-20T02:31:45.980Z,11.80
2018-09-20T02:34:14.495Z,13.03
2018-09-20T02:36:42.832Z,13.17
2018-09-20T02:39:11.166Z,12.13
2018-09-20T02:41:39.502Z,11.53
2018-09-20T02:44:07.826Z,11.70
2018-09-20T02:46:36.107Z,12.17
2018-09-20T02:49:04.464Z,12.00
2018-09-20T02:51:32.823Z,12.10
2018-09-20T02:54:01.144Z,11.97
2018-09-20T02:56:29.488Z,11.97
2018-09-20T02:58:57.836Z,10.23
2018-09-20T03:01:26.268Z,12.77
2018-09-20T03:03:54.641Z,12.33
2018-09-20T03:06:22.993Z,11.90
2018-09-20T03:08:51.397Z,11.00
2018-09-20T03:11:19.877Z,11.50
2018-09-20T03:13:48.343Z,11.80
2018-09-20T03:16:16.928Z,12.00
2018-09-20T03:18:45.507Z,10.90
2018-09-20T03:21:13.861Z,11.90
2018-09-20T03:23:42.380Z,12.73
2018-09-20T03:26:10.769Z,13.60
2018-09-20T03:28:39.085Z,12.70
2018-09-20T03:31:07.690Z,12.27
2018-09-20T03:33:36.111Z,12.80
2018-09-20T03:36:04.392Z,12.60
2018-09-20T03:38:32.992Z,13.17
2018-09-20T03:41:01.417Z,11.80
2018-09-20T03:43:29.874Z,9.67
2018-09-20T03:45:58.120Z,11.20
2018-09-20T03:48:26.659Z,11.10
2018-09-20T03:50:55.032Z,13.47
2018-09-20T03:53:23.400Z,12.40
2018-09-20T03:55:51.821Z,11.97
2018-09-20T03:58:20.144Z,12.50
2018-09-20T04:00:48.423Z,13.30
2018-09-20T04:03:16.811Z,12.53
2018-09-20T04:05:45.227Z,12.27
2018-09-20T04:08:13.554Z,14.00
2018-09-20T04:10:42.163Z,11.90
2018-09-20T04:13:10.446Z,11.90
2018-09-20T04:15:38.733Z,13.80
2018-09-20T04:18:07.143Z,12.00
2018-09-20T04:20:35.419Z,12.77
2018-09-20T04:23:03.721Z,15.30
2018-09-20T04:25:32.100Z,13.97
2018-09-20T04:28:00.372Z,14.67
2018-09-20T04:30:28.899Z,13.60
2018-09-20T04:32:57.405Z,13.50
2018-09-20T04:35:25.815Z,13.23
2018-09-20T04:37:54.097Z,13.57
2018-09-20T04:40:22.409Z,13.70
2018-09-20T04:42:50.849Z,13.20
2018-09-20T04:45:19.236Z,13.97
2018-09-20T04:47:47.827Z,13.00
2018-09-20T04:50:16.123Z,11.33
2018-09-20T04:52:44.504Z,12.50
2018-09-20T04:55:12.865Z,13.90
2018-09-20T04:57:41.207Z,12.63
2018-09-20T05:00:09.634Z,12.43
2018-09-20T05:02:37.962Z,12.17
2018-09-20T05:05:06.432Z,12.00
2018-09-20T05:07:34.709Z,12.77
2018-09-20T05:10:03.013Z,13.83
2018-09-20T05:12:31.321Z,13.27
2018-09-20T05:14:59.775Z,12.47
2018-09-20T05:17:28.277Z,13.33
2018-09-20T05:19:56.591Z,13.83
2018-09-20T05:22:24.875Z,13.80
2018-09-20T05:24:53.151Z,15.00
2018-09-20T05:27:22.580Z,14.50
2018-09-20T05:29:50.958Z,13.53
2018-09-20T05:32:19.456Z,15.60
2018-09-20T05:34:47.882Z,16.60
2018-09-20T05:37:16.303Z,14.60
2018-09-20T05:39:44.648Z,14.57
2018-09-20T05:42:13.074Z,13.50
2018-09-20T05:44:41.369Z,10.67
2018-09-20T05:47:09.944Z,12.33
2018-09-20T05:49:38.239Z,10.83
2018-09-20T05:52:06.764Z,9.57
2018-09-20T05:54:35.110Z,10.47
2018-09-20T05:57:03.654Z,11.73
2018-09-20T05:59:32.101Z,14.93
2018-09-20T06:02:00.502Z,15.63
2018-09-20T06:04:28.939Z,13.90
2018-09-20T06:06:57.273Z,13.27
2018-09-20T06:09:25.589Z,12.80
2018-09-20T06:11:53.988Z,13.17
2018-09-20T06:14:22.308Z,15.00
2018-09-20T06:16:50.644Z,13.23
2018-09-20T06:19:18.944Z,14.90
2018-09-20T06:21:47.341Z,16.10
2018-09-20T06:24:15.546Z,18.47
2018-09-20T06:26:44.024Z,20.37
2018-09-20T06:29:12.624Z,20.30
2018-09-20T06:31:41.322Z,22.43
2018-09-20T06:34:09.826Z,26.70
2018-09-20T06:36:38.428Z,32.30
2018-09-20T06:39:09.992Z,25.40
2018-09-20T06:41:38.455Z,20.00
2018-09-20T06:44:06.996Z,17.67
2018-09-20T06:46:35.379Z,16.67
2018-09-20T06:49:03.707Z,17.33
2018-09-20T06:51:32.130Z,21.67
2018-09-20T06:54:00.541Z,18.97
2018-09-20T06:56:28.844Z,14.97
2018-09-20T06:58:57.135Z,14.77
2018-09-20T07:01:26.197Z,19.80
2018-09-20T07:03:54.487Z,14.90
2018-09-20T07:06:22.924Z,14.00
2018-09-20T07:08:51.263Z,13.33
2018-09-20T07:11:19.596Z,12.83
2018-09-20T07:13:48.129Z,17.30
2018-09-20T07:16:16.419Z,14.90
2018-09-20T07:18:44.758Z,15.03
2018-09-20T07:21:13.107Z,13.17
2018-09-20T07:23:41.394Z,13.10
2018-09-20T07:26:09.858Z,12.80
2018-09-20T07:28:38.164Z,12.60
2018-09-20T07:31:06.920Z,12.80
2018-09-20T07:33:35.272Z,12.80
2018-09-20T07:36:03.556Z,11.80
2018-09-20T07:38:31.958Z,11.80
2018-09-20T07:41:00.320Z,21.03
2018-09-20T07:43:28.671Z,13.57
2018-09-20T07:45:56.999Z,11.83
2018-09-20T07:48:25.316Z,11.77
2018-09-20T07:50:53.645Z,11.00
2018-09-20T07:53:22.070Z,11.00
2018-09-20T07:55:50.304Z,11.37
2018-09-20T07:58:18.773Z,10.80
2018-09-20T08:00:47.040Z,10.90
2018-09-20T08:03:15.407Z,10.80
2018-09-20T08:05:43.688Z,10.30
2018-09-20T08:08:12.030Z,10.43
2018-09-20T08:10:40.379Z,15.37
2018-09-20T08:13:08.779Z,15.60
2018-09-20T08:15:37.103Z,10.37
2018-09-20T08:18:05.369Z,10.73
2018-09-20T08:20:33.692Z,10.70
2018-09-20T08:23:01.966Z,10.60
2018-09-20T08:25:30.422Z,10.60
2018-09-20T08:27:58.898Z,10.63
2018-09-20T08:30:27.132Z,10.20
2018-09-20T08:32:55.412Z,10.50
2018-09-20T08:35:23.714Z,9.70
2018-09-20T08:37:52.085Z,9.07
2018-09-20T08:40:20.417Z,10.50
2018-09-20T08:42:48.693Z,8.53
2018-09-20T08:45:17.046Z,9.27
2018-09-20T08:47:45.350Z,9.10
2018-09-20T08:50:13.686Z,9.90
2018-09-20T08:52:42.092Z,9.63
2018-09-20T08:55:10.500Z,8.70
2018-09-20T08:57:44.024Z,10.10
2018-09-20T09:00:12.303Z,9.70
2018-09-20T09:02:40.682Z,9.50
2018-09-20T09:05:09.075Z,9.40
2018-09-20T09:07:38.178Z,7.70
2018-09-20T09:10:06.946Z,8.30
2018-09-20T09:12:35.207Z,8.70
2018-09-20T09:15:03.461Z,7.80
2018-09-20T09:17:31.872Z,8.10
2018-09-20T09:20:00.073Z,8.07
2018-09-20T09:22:28.378Z,7.30
2018-09-20T09:24:57.073Z,7.93
2018-09-20T09:27:25.438Z,8.93
2018-09-20T09:29:53.756Z,9.23
2018-09-20T09:32:22.007Z,9.10
2018-09-20T09:34:50.335Z,7.97
2018-09-20T09:37:19.764Z,8.67
2018-09-20T09:39:48.089Z,7.63
2018-09-20T09:42:16.469Z,8.20
2018-09-20T09:44:44.731Z,8.53
2018-09-20T09:47:13.050Z,9.23
2018-09-20T09:49:41.400Z,8.37
2018-09-20T09:52:09.718Z,9.13
2018-09-20T09:54:38.028Z,9.67
2018-09-20T09:57:06.750Z,10.30
2018-09-20T09:59:35.168Z,9.07
2018-09-20T10:02:03.542Z,9.03
2018-09-20T10:04:31.866Z,9.87
2018-09-20T10:07:00.315Z,9.10
2018-09-20T10:09:28.619Z,9.10
2018-09-20T10:11:56.913Z,9.57
2018-09-20T10:14:25.302Z,8.50
2018-09-20T10:16:53.617Z,8.50
2018-09-20T10:19:21.860Z,9.33
2018-09-20T10:21:50.224Z,8.53
2018-09-20T10:24:18.523Z,9.67
2018-09-20T10:26:46.859Z,9.10
2018-09-20T10:29:15.221Z,8.13
2018-09-20T10:31:43.545Z,9.37
2018-09-20T10:34:11.999Z,8.27
2018-09-20T10:36:40.214Z,8.90
2018-09-20T10:39:11.370Z,9.37
2018-09-20T10:41:39.686Z,8.50
2018-09-20T10:44:08.340Z,8.60
2018-09-20T10:46:36.719Z,8.23
2018-09-20T10:49:05.008Z,8.40
2018-09-20T10:51:33.316Z,9.17
2018-09-20T10:54:01.597Z,8.00
2018-09-20T10:56:29.877Z,7.60
2018-09-20T10:58:58.325Z,7.47
2018-09-20T11:01:26.684Z,8.33
2018-09-20T11:03:55.069Z,7.63
2018-09-20T11:06:23.379Z,7.17
2018-09-20T11:08:51.989Z,7.00
2018-09-20T11:11:20.401Z,7.33
2018-09-20T11:13:48.786Z,7.77
2018-09-20T11:16:17.992Z,7.57
2018-09-20T11:18:46.572Z,7.40
2018-09-20T11:21:15.159Z,8.07
2018-09-20T11:23:43.725Z,8.20
2018-09-20T11:26:12.129Z,7.50
2018-09-20T11:28:41.143Z,8.00
2018-09-20T11:31:09.814Z,7.07
2018-09-20T11:33:38.256Z,7.07
2018-09-20T11:36:06.716Z,7.50
2018-09-20T11:38:35.218Z,8.00
2018-09-20T11:41:03.654Z,6.93
2018-09-20T11:43:32.117Z,7.17
2018-09-20T11:46:00.677Z,8.30
2018-09-20T11:48:28.950Z,7.63
2018-09-20T11:50:57.297Z,7.87
2018-09-20T11:53:25.629Z,10.17
2018-09-20T11:55:53.900Z,8.20
2018-09-20T11:58:22.333Z,8.70
2018-09-20T12:00:50.756Z,7.30
2018-09-20T12:03:19.039Z,6.70
2018-09-20T12:05:47.411Z,7.00
2018-09-20T12:08:16.157Z,6.70
2018-09-20T12:10:44.471Z,6.23
2018-09-20T12:13:12.839Z,7.47
2018-09-20T12:15:41.168Z,6.47
2018-09-20T12:18:09.481Z,6.37
2018-09-20T12:20:37.947Z,6.50
2018-09-20T12:23:06.201Z,6.20
2018-09-20T12:25:34.531Z,5.90
2018-09-20T12:28:02.839Z,6.23
2018-09-20T12:30:31.336Z,5.77
2018-09-20T12:32:59.630Z,5.50
2018-09-20T12:35:28.118Z,5.00
2018-09-20T12:37:56.408Z,5.43
2018-09-20T12:40:24.696Z,4.87
2018-09-20T12:42:53.204Z,5.33
2018-09-20T12:45:21.456Z,5.07
2018-09-20T12:47:49.752Z,5.00
2018-09-20T12:50:18.069Z,5.30
2018-09-20T12:52:46.492Z,4.80
2018-09-20T12:55:15.042Z,5.00
2018-09-20T12:57:43.410Z,4.80
2018-09-20T13:00:11.882Z,4.77
2018-09-20T13:02:40.222Z,5.23
2018-09-20T13:05:08.648Z,4.80
2018-09-20T13:07:36.954Z,4.47
2018-09-20T13:10:05.411Z,5.03
2018-09-20T13:12:33.761Z,4.40
2018-09-20T13:15:02.177Z,6.20
2018-09-20T13:17:30.727Z,4.80
2018-09-20T13:19:59.063Z,5.33
2018-09-20T13:22:27.489Z,5.60
2018-09-20T13:24:56.110Z,5.03
2018-09-20T13:27:24.793Z,5.03
2018-09-20T13:29:53.212Z,7.17
2018-09-20T13:32:21.755Z,4.70
2018-09-20T13:34:50.352Z,4.90
2018-09-20T13:37:18.958Z,4.80
2018-09-20T13:39:47.650Z,4.50
2018-09-20T13:42:15.938Z,4.87
2018-09-20T13:44:44.268Z,5.63
2018-09-20T13:47:12.724Z,5.80
2018-09-20T13:49:40.989Z,5.93
2018-09-20T13:52:09.377Z,5.30
2018-09-20T13:54:37.771Z,5.30
2018-09-20T13:57:06.159Z,5.00
2018-09-20T13:59:34.458Z,4.87
2018-09-20T14:02:03.722Z,5.60
2018-09-20T14:04:32.261Z,4.23
2018-09-20T14:07:00.556Z,4.80
2018-09-20T14:09:29.337Z,5.23
2018-09-20T14:11:57.650Z,4.47
2018-09-20T14:14:25.931Z,4.80
2018-09-20T14:16:54.227Z,4.30
2018-09-20T14:19:22.703Z,5.00
2018-09-20T14:21:50.992Z,4.90
2018-09-20T14:24:19.557Z,5.27
2018-09-20T14:26:47.847Z,5.37
2018-09-20T14:29:16.223Z,4.90
2018-09-20T14:31:44.956Z,4.97
2018-09-20T14:34:13.199Z,4.33
2018-09-20T14:36:41.564Z,4.93
2018-09-20T14:39:10.970Z,5.10
2018-09-20T14:41:39.679Z,4.57
2018-09-20T14:44:08.022Z,4.70
2018-09-20T14:46:36.303Z,4.50
2018-09-20T14:49:04.697Z,4.90
2018-09-20T14:51:33.131Z,4.60
2018-09-20T14:54:01.460Z,4.23
2018-09-20T14:56:29.769Z,4.40
2018-09-20T14:58:58.102Z,4.43
2018-09-20T15:01:26.385Z,5.00
2018-09-20T15:03:54.740Z,4.47
2018-09-20T15:06:23.053Z,4.63
2018-09-20T15:08:51.404Z,4.13
2018-09-20T15:11:19.688Z,3.80
2018-09-20T15:13:48.244Z,4.30
2018-09-20T15:16:16.538Z,4.33
2018-09-20T15:18:44.841Z,3.80
2018-09-20T15:21:13.145Z,3.63
2018-09-20T15:23:41.429Z,3.57
2018-09-20T15:26:09.727Z,4.80
2018-09-20T15:28:38.419Z,4.40
2018-09-20T15:31:06.943Z,5.07
2018-09-20T15:33:35.255Z,5.10
2018-09-20T15:36:03.552Z,4.67
2018-09-20T15:38:31.858Z,4.10
2018-09-20T15:41:01.138Z,3.90
2018-09-20T15:43:29.376Z,3.93
2018-09-20T15:45:57.681Z,4.80
2018-09-20T15:48:26.048Z,4.47
2018-09-20T15:50:54.482Z,3.43
2018-09-20T15:53:22.800Z,4.27
2018-09-20T15:55:51.089Z,4.40
2018-09-20T15:58:19.615Z,4.20
2018-09-20T16:00:47.860Z,3.70
2018-09-20T16:03:17.007Z,3.80
2018-09-20T16:05:45.323Z,4.30
2018-09-20T16:08:13.649Z,4.07
2018-09-20T16:10:41.953Z,4.20
2018-09-20T16:13:10.353Z,4.80
2018-09-20T16:15:39.503Z,4.60
2018-09-20T16:18:08.025Z,5.20
2018-09-20T16:20:36.286Z,4.50
2018-09-20T16:23:04.604Z,5.00
2018-09-20T16:25:32.856Z,5.03
2018-09-20T16:28:10.528Z,4.83
2018-09-20T16:30:52.440Z,4.77
2018-09-20T16:33:38.611Z,4.90
2018-09-20T16:36:17.710Z,4.70
2018-09-20T16:38:56.007Z,4.90
2018-09-20T16:41:30.820Z,5.20
2018-09-20T16:43:59.929Z,5.97
2018-09-20T16:46:28.224Z,6.47
2018-09-20T16:48:56.536Z,6.40
2018-09-20T16:51:24.855Z,5.83
2018-09-20T16:53:53.313Z,5.80
2018-09-20T16:56:21.866Z,6.23
2018-09-20T16:58:51.511Z,6.13
2018-09-20T17:01:20.604Z,6.47
2018-09-20T17:03:49.177Z,6.73
2018-09-20T17:06:18.242Z,6.97
2018-09-20T17:08:47.344Z,6.57
2018-09-20T17:11:15.678Z,8.10
2018-09-20T17:13:44.176Z,6.93
2018-09-20T17:16:12.667Z,7.67
2018-09-20T17:18:40.985Z,6.77
2018-09-20T17:21:09.577Z,7.80
2018-09-20T17:23:37.978Z,6.70
2018-09-20T17:26:06.456Z,6.37
2018-09-20T17:28:34.921Z,7.37
2018-09-20T17:31:03.342Z,6.63
2018-09-20T17:33:31.988Z,6.43
2018-09-20T17:36:00.752Z,6.20
2018-09-20T17:38:31.170Z,7.30
2018-09-20T17:41:09.580Z,7.63
2018-09-20T17:43:46.376Z,6.73
2018-09-20T17:46:15.141Z,7.00
2018-09-20T17:48:43.475Z,7.33
2018-09-20T17:51:13.272Z,7.97
2018-09-20T17:53:42.976Z,7.03
2018-09-20T17:56:12.167Z,6.70
2018-09-20T17:58:41.661Z,7.50
2018-09-20T18:01:10.083Z,8.27
2018-09-20T18:03:38.356Z,8.47
2018-09-20T18:06:06.804Z,7.10
2018-09-20T18:08:35.268Z,7.20
2018-09-20T18:11:03.713Z,9.03
2018-09-20T18:13:32.416Z,9.17
2018-09-20T18:16:00.703Z,8.93
2018-09-20T18:18:29.000Z,7.80
2018-09-20T18:20:57.318Z,8.57
2018-09-20T18:23:25.818Z,7.60
2018-09-20T18:25:54.119Z,7.20
2018-09-20T18:28:53.800Z,7.10
2018-09-20T18:31:22.096Z,8.00
2018-09-20T18:33:53.037Z,7.43
2018-09-20T18:36:21.671Z,7.23
2018-09-20T18:38:49.982Z,7.03
2018-09-20T18:41:18.394Z,7.80
2018-09-20T18:43:46.751Z,7.93
2018-09-20T18:46:15.201Z,8.63
2018-09-20T18:48:43.504Z,9.30
2018-09-20T18:51:11.904Z,8.50
2018-09-20T18:53:40.149Z,8.53
2018-09-20T18:56:08.392Z,7.83
2018-09-20T18:58:36.702Z,8.33
2018-09-20T19:01:05.018Z,7.33
2018-09-20T19:03:33.376Z,8.90
2018-09-20T19:06:02.118Z,9.20
2018-09-20T19:08:30.435Z,7.60
2018-09-20T19:10:59.990Z,8.50
2018-09-20T19:13:28.923Z,7.30
2018-09-20T19:15:57.428Z,9.43
2018-09-20T19:18:26.310Z,7.07
2018-09-20T19:20:54.677Z,7.50
2018-09-20T19:23:23.128Z,7.60
2018-09-20T19:25:51.571Z,7.87
2018-09-20T19:28:20.076Z,7.87
2018-09-20T19:30:48.480Z,8.40
2018-09-20T19:33:16.857Z,7.67
2018-09-20T19:35:45.245Z,8.33
2018-09-20T19:38:13.696Z,10.83
2018-09-20T19:40:42.125Z,10.37
2018-09-20T19:43:11.361Z,9.23
2018-09-20T19:45:39.680Z,8.63
2018-09-20T19:48:07.974Z,9.47
2018-09-20T19:50:36.396Z,9.10
2018-09-20T19:53:04.772Z,8.57
2018-09-20T19:55:33.162Z,8.50
2018-09-20T19:58:01.474Z,8.33
2018-09-20T20:00:29.981Z,8.47
2018-09-20T20:02:58.506Z,11.73
2018-09-20T20:05:26.820Z,10.17
2018-09-20T20:07:55.107Z,10.67
2018-09-20T20:10:23.572Z,11.40
2018-09-20T20:12:51.867Z,10.87
2018-09-20T20:15:20.176Z,9.60
2018-09-20T20:17:48.481Z,10.90
2018-09-20T20:20:16.816Z,10.40
2018-09-20T20:22:45.152Z,10.60
2018-09-20T20:25:13.945Z,12.70
2018-09-20T20:27:44.320Z,13.80
2018-09-20T20:30:12.872Z,10.77
2018-09-20T20:32:41.193Z,8.90
2018-09-20T20:35:09.658Z,8.30
2018-09-20T20:37:38.225Z,9.67
2018-09-20T20:40:08.184Z,9.40
2018-09-20T20:42:36.836Z,9.30
2018-09-20T20:45:05.331Z,9.70
2018-09-20T20:47:33.841Z,8.60
2018-09-20T20:50:02.391Z,9.17
2018-09-20T20:52:31.758Z,9.10
2018-09-20T20:55:00.251Z,9.20
2018-09-20T20:57:28.651Z,8.47
2018-09-20T20:59:57.424Z,10.17
2018-09-20T21:02:25.880Z,9.97
2018-09-20T21:04:54.395Z,10.27
2018-09-20T21:07:23.028Z,10.17
2018-09-20T21:09:51.613Z,8.80
2018-09-20T21:12:20.039Z,9.77
2018-09-20T21:14:48.397Z,9.37
2018-09-20T21:17:17.404Z,10.40
2018-09-20T21:19:45.770Z,9.80
2018-09-20T21:22:14.138Z,9.70
2018-09-20T21:24:42.455Z,10.67
2018-09-20T21:27:10.749Z,9.50
2018-09-20T21:29:39.938Z,9.20
2018-09-20T21:32:09.433Z,9.20
2018-09-20T21:34:38.109Z,9.53
2018-09-20T21:37:06.780Z,10.67
2018-09-20T21:39:35.357Z,8.70
2018-09-20T21:42:03.952Z,9.07
2018-09-20T21:44:32.430Z,10.10
2018-09-20T21:47:00.847Z,8.47
2018-09-20T21:49:29.217Z,9.77
2018-09-20T21:51:57.689Z,9.20
2018-09-20T21:54:26.409Z,9.57
2018-09-20T21:56:56.597Z,9.33
2018-09-20T21:59:28.765Z,9.73
2018-09-20T22:02:08.652Z,8.93
2018-09-20T22:04:41.699Z,9.50
2018-09-20T22:07:28.360Z,10.53
2018-09-20T22:10:04.102Z,9.27
2018-09-20T22:12:46.778Z,10.00
2018-09-20T22:15:31.115Z,10.33
2018-09-20T22:18:09.600Z,8.97
2018-09-20T22:20:44.874Z,10.27
2018-09-20T22:23:17.126Z,10.30
2018-09-20T22:25:59.264Z,9.80
2018-09-20T22:28:30.088Z,19.23
2018-09-20T22:33:48.397Z,11.27
2018-09-20T22:36:17.198Z,13.97
2018-09-20T22:38:48.280Z,13.27
2018-09-20T22:41:16.616Z,11.23
2018-09-20T22:43:44.947Z,10.80
2018-09-20T22:46:13.429Z,10.30
2018-09-20T22:48:43.796Z,8.70
2018-09-20T22:51:12.847Z,10.67
2018-09-20T22:53:41.813Z,9.87
2018-09-20T22:56:13.301Z,11.37
2018-09-20T22:58:42.274Z,10.70
2018-09-20T23:01:15.913Z,10.17
2018-09-20T23:03:47.159Z,11.20
2018-09-20T23:06:19.791Z,11.30
2018-09-20T23:08:48.300Z,11.00
2018-09-20T23:11:16.665Z,11.20
2018-09-20T23:13:44.980Z,10.20
2018-09-20T23:16:13.494Z,10.60
2018-09-20T23:18:41.858Z,11.13
2018-09-20T23:21:10.199Z,11.13
2018-09-20T23:23:38.631Z,11.20
2018-09-20T23:26:07.123Z,10.83
2018-09-20T23:28:35.428Z,10.67
2018-09-20T23:31:03.745Z,10.17
2018-09-20T23:33:32.173Z,10.23
2018-09-20T23:36:00.579Z,11.37
2018-09-20T23:38:28.920Z,10.87
2018-09-20T23:40:57.256Z,10.73
2018-09-20T23:43:25.624Z,10.70
2018-09-20T23:45:54.027Z,11.23
2018-09-20T23:48:22.357Z,12.43
2018-09-20T23:50:50.692Z,11.23
2018-09-20T23:53:19.075Z,11.80
2018-09-20T23:55:47.358Z,10.80
2018-09-20T23:58:15.708Z,12.30
